createdAt,value
2022-10-31T00:01:07.358Z,12.02
2022-10-31T00:06:07.392Z,12.33
2022-10-31T00:11:07.147Z,11.99
2022-10-31T00:16:07.062Z,11.50
2022-10-31T00:21:07.047Z,11.82
2022-10-31T00:26:07.017Z,12.11
2022-10-31T00:31:06.837Z,11.72
2022-10-31T00:36:09.927Z,11.50
2022-10-31T00:41:06.852Z,11.71
2022-10-31T00:46:06.701Z,11.90
2022-10-31T00:51:06.567Z,11.49
2022-10-31T00:56:06.548Z,11.49
2022-10-31T01:01:06.590Z,11.86
2022-10-31T01:06:06.428Z,11.46
2022-10-31T01:11:06.309Z,11.38
2022-10-31T01:16:14.081Z,11.39
2022-10-31T01:21:06.174Z,11.36
2022-10-31T01:26:06.131Z,11.10
2022-10-31T01:31:06.021Z,10.80
2022-10-31T01:36:09.042Z,10.98
2022-10-31T01:41:05.911Z,10.84
2022-10-31T01:46:06.025Z,10.66
2022-10-31T01:51:05.759Z,10.63
2022-10-31T01:56:05.746Z,11.13
2022-10-31T02:01:08.059Z,11.17
2022-10-31T02:06:05.671Z,10.91
2022-10-31T02:11:05.496Z,10.83
2022-10-31T02:16:05.630Z,11.11
2022-10-31T02:21:05.379Z,11.35
2022-10-31T02:26:05.343Z,11.03
2022-10-31T02:31:05.469Z,10.96
2022-10-31T02:36:08.226Z,10.36
2022-10-31T02:41:05.146Z,10.19
2022-10-31T02:46:05.083Z,10.18
2022-10-31T02:51:04.982Z,10.43
2022-10-31T02:56:05.033Z,10.21
2022-10-31T03:01:05.049Z,10.39
2022-10-31T03:06:04.822Z,11.02
2022-10-31T03:11:04.721Z,10.43
2022-10-31T03:16:04.676Z,10.21
2022-10-31T03:21:04.558Z,10.18
2022-10-31T03:26:04.584Z,9.93
2022-10-31T03:31:06.472Z,9.97
2022-10-31T03:36:07.396Z,10.46
2022-10-31T03:41:04.302Z,9.81
2022-10-31T03:46:04.531Z,9.94
2022-10-31T03:51:04.163Z,9.97
2022-10-31T03:56:04.301Z,10.17
2022-10-31T04:01:04.210Z,9.91
2022-10-31T04:06:04.100Z,9.67
2022-10-31T04:11:03.899Z,9.93
2022-10-31T04:16:03.907Z,10.03
2022-10-31T04:21:03.821Z,9.93
2022-10-31T04:26:03.712Z,9.86
2022-10-31T04:31:11.512Z,10.06
2022-10-31T04:36:06.622Z,10.14
2022-10-31T04:41:03.583Z,9.94
2022-10-31T04:46:03.448Z,10.00
2022-10-31T04:51:03.441Z,10.21
2022-10-31T04:56:03.384Z,10.06
2022-10-31T05:01:03.433Z,9.40
2022-10-31T05:06:03.173Z,9.23
2022-10-31T05:11:04.538Z,9.68
2022-10-31T05:16:03.027Z,9.82
2022-10-31T05:21:03.018Z,10.10
2022-10-31T05:26:02.910Z,9.31
2022-10-31T05:31:02.932Z,9.27
2022-10-31T05:36:05.825Z,9.64
2022-10-31T05:41:02.707Z,9.48
2022-10-31T05:46:02.765Z,9.85
2022-10-31T05:51:10.116Z,10.17
2022-10-31T05:56:02.627Z,9.78
2022-10-31T06:01:02.526Z,9.32
2022-10-31T06:06:02.371Z,9.46
2022-10-31T06:11:02.337Z,9.49
2022-10-31T06:16:02.242Z,9.85
2022-10-31T06:21:02.333Z,9.71
2022-10-31T06:26:02.337Z,9.30
2022-10-31T06:31:02.226Z,9.15
2022-10-31T06:36:05.006Z,9.88
2022-10-31T06:41:01.961Z,10.07
2022-10-31T06:46:01.931Z,10.70
2022-10-31T06:51:01.812Z,11.01
2022-10-31T06:56:01.762Z,11.21
2022-10-31T07:01:01.770Z,11.34
2022-10-31T07:06:08.932Z,11.86
2022-10-31T07:11:01.491Z,11.64
2022-10-31T07:16:01.593Z,11.82
2022-10-31T07:21:01.382Z,11.96
2022-10-31T07:26:01.471Z,12.05
2022-10-31T07:31:01.241Z,12.08
2022-10-31T07:36:04.209Z,12.21
2022-10-31T07:41:01.411Z,11.99
2022-10-31T07:46:01.113Z,12.45
2022-10-31T07:51:00.985Z,12.74
2022-10-31T07:56:00.973Z,12.87
2022-10-31T08:01:00.946Z,12.99
2022-10-31T08:06:00.841Z,13.11
2022-10-31T08:11:00.869Z,13.29
2022-10-31T08:16:00.770Z,13.46
2022-10-31T08:21:00.602Z,13.55
2022-10-31T08:26:00.671Z,13.71
2022-10-31T08:31:00.798Z,13.94
2022-10-31T08:36:04.101Z,14.01
2022-10-31T08:41:00.342Z,13.79
2022-10-31T08:46:00.375Z,14.21
2022-10-31T08:51:00.177Z,14.31
2022-10-31T08:56:00.390Z,14.56
2022-10-31T09:01:00.161Z,14.61
2022-10-31T09:06:00.126Z,15.02
2022-10-31T09:10:59.897Z,15.31
2022-10-31T09:16:00.003Z,15.35
2022-10-31T09:20:59.819Z,15.41
2022-10-31T09:25:59.874Z,15.57
2022-10-31T09:30:59.786Z,15.88
2022-10-31T09:36:02.697Z,16.07
2022-10-31T09:40:59.607Z,15.82
2022-10-31T09:45:59.672Z,16.33
2022-10-31T09:50:59.351Z,16.48
2022-10-31T09:55:59.444Z,16.67
2022-10-31T10:00:59.294Z,16.83
2022-10-31T10:05:59.354Z,17.06
2022-10-31T10:10:59.108Z,17.32
2022-10-31T10:15:59.235Z,17.53
2022-10-31T10:21:06.993Z,18.04
2022-10-31T10:26:11.062Z,18.24
2022-10-31T10:30:58.951Z,17.94
2022-10-31T10:36:01.811Z,18.18
2022-10-31T10:40:58.853Z,17.84
2022-10-31T10:45:58.736Z,18.33
2022-10-31T10:50:58.672Z,18.42
2022-10-31T10:55:58.607Z,17.87
2022-10-31T11:00:58.594Z,18.27
2022-10-31T11:05:58.584Z,18.80
2022-10-31T11:10:58.313Z,18.97
2022-10-31T11:15:58.248Z,19.24
2022-10-31T11:20:58.261Z,19.55
2022-10-31T11:25:58.116Z,19.60
2022-10-31T11:30:58.053Z,19.65
2022-10-31T11:36:01.037Z,19.94
2022-10-31T11:40:58.262Z,19.93
2022-10-31T11:45:57.861Z,20.59
2022-10-31T11:50:57.753Z,20.77
2022-10-31T11:55:58.481Z,21.02
2022-10-31T12:00:57.711Z,21.17
2022-10-31T12:05:57.797Z,21.20
2022-10-31T12:10:57.482Z,21.41
2022-10-31T12:15:57.553Z,21.54
2022-10-31T12:20:57.368Z,21.61
2022-10-31T12:25:57.381Z,21.53
2022-10-31T12:30:57.337Z,21.75
2022-10-31T12:36:00.439Z,21.72
2022-10-31T12:40:57.126Z,21.48
2022-10-31T12:45:57.191Z,21.85
2022-10-31T12:50:57.013Z,21.69
2022-10-31T12:55:57.078Z,21.98
2022-10-31T13:00:56.994Z,21.99
2022-10-31T13:05:57.349Z,21.92
2022-10-31T13:10:56.797Z,22.06
2022-10-31T13:15:56.763Z,22.20
2022-10-31T13:20:56.577Z,21.97
2022-10-31T13:25:56.544Z,22.23
2022-10-31T13:30:56.511Z,21.75
2022-10-31T13:35:59.785Z,21.95
2022-10-31T13:40:56.358Z,21.53
2022-10-31T13:45:56.442Z,22.01
2022-10-31T13:50:56.285Z,21.91
2022-10-31T13:55:56.165Z,21.94
2022-10-31T14:00:56.084Z,21.61
2022-10-31T14:05:56.062Z,21.63
2022-10-31T14:10:55.955Z,21.45
2022-10-31T14:15:55.917Z,21.48
2022-10-31T14:20:55.782Z,21.36
2022-10-31T14:25:56.892Z,21.34
2022-10-31T14:30:55.696Z,21.36
2022-10-31T14:35:58.702Z,21.21
2022-10-31T14:40:55.589Z,20.76
2022-10-31T14:45:55.495Z,20.74
2022-10-31T14:50:55.386Z,20.66
2022-10-31T14:56:06.897Z,20.59
2022-10-31T15:01:02.836Z,20.66
2022-10-31T15:05:55.406Z,20.35
2022-10-31T15:10:55.233Z,20.23
2022-10-31T15:15:55.102Z,19.97
2022-10-31T15:20:55.003Z,19.83
2022-10-31T15:25:55.111Z,19.86
2022-10-31T15:30:54.864Z,19.69
2022-10-31T15:35:58.522Z,19.46
2022-10-31T15:40:54.810Z,19.23
2022-10-31T15:45:54.801Z,19.31
2022-10-31T15:50:54.627Z,19.28
2022-10-31T15:55:54.527Z,19.35
2022-10-31T16:00:54.547Z,19.23
2022-10-31T16:05:54.428Z,19.21
2022-10-31T16:10:54.407Z,18.74
2022-10-31T16:16:08.780Z,18.44
2022-10-31T16:20:55.266Z,18.10
2022-10-31T16:25:54.287Z,18.02
2022-10-31T16:30:54.186Z,17.88
2022-10-31T16:36:09.612Z,17.79
2022-10-31T16:40:55.048Z,17.29
2022-10-31T16:45:54.685Z,17.57
2022-10-31T16:50:53.913Z,17.40
2022-10-31T16:55:53.835Z,17.25
2022-10-31T17:00:53.724Z,17.08
2022-10-31T17:05:53.789Z,17.06
2022-10-31T17:10:53.541Z,17.03
2022-10-31T17:15:53.517Z,16.77
2022-10-31T17:20:53.408Z,16.88
2022-10-31T17:25:53.438Z,16.50
2022-10-31T17:31:01.533Z,16.34
2022-10-31T17:36:03.706Z,16.58
2022-10-31T17:40:53.253Z,16.06
2022-10-31T17:45:53.133Z,16.03
2022-10-31T17:50:52.977Z,15.93
2022-10-31T17:55:53.943Z,16.25
2022-10-31T18:00:52.940Z,16.22
2022-10-31T18:05:53.167Z,16.14
2022-10-31T18:10:52.728Z,15.88
2022-10-31T18:15:52.747Z,15.68
2022-10-31T18:20:52.556Z,15.24
2022-10-31T18:23:38.835Z,15.15
2022-10-31T18:28:38.827Z,15.20
2022-10-31T18:33:38.972Z,15.74
2022-10-31T18:38:38.693Z,15.30
2022-10-31T18:43:38.572Z,15.63
2022-10-31T18:48:38.645Z,15.12
2022-10-31T18:53:38.690Z,14.78
2022-10-31T18:58:46.072Z,15.09
2022-10-31T19:03:38.259Z,14.74
2022-10-31T19:08:38.265Z,14.87
2022-10-31T19:13:41.230Z,15.09
2022-10-31T19:18:38.162Z,14.68
2022-10-31T19:23:38.054Z,14.37
2022-10-31T19:28:37.917Z,14.83
2022-10-31T19:33:37.862Z,14.54
2022-10-31T19:38:37.822Z,13.99
2022-10-31T19:43:37.832Z,14.24
2022-10-31T19:48:37.689Z,13.94
2022-10-31T19:53:45.444Z,13.73
2022-10-31T19:58:37.608Z,13.59
2022-10-31T20:03:37.610Z,14.01
2022-10-31T20:08:39.506Z,13.47
2022-10-31T20:13:40.679Z,13.14
2022-10-31T20:18:37.365Z,12.82
2022-10-31T20:23:37.241Z,13.22
2022-10-31T20:28:41.453Z,13.20
2022-10-31T20:33:38.172Z,13.46
2022-10-31T20:38:37.022Z,13.52
2022-10-31T20:43:36.992Z,13.88
2022-10-31T20:48:36.873Z,13.40
2022-10-31T20:53:36.937Z,13.27
2022-10-31T20:58:36.817Z,13.46
2022-10-31T21:03:36.706Z,13.49
2022-10-31T21:08:36.700Z,13.96
2022-10-31T21:13:40.818Z,13.95
2022-10-31T21:18:36.471Z,13.92
2022-10-31T21:23:36.466Z,13.88
2022-10-31T21:28:36.602Z,13.69
2022-10-31T21:33:36.358Z,13.87
2022-10-31T21:38:36.312Z,14.02
2022-10-31T21:43:36.297Z,14.12
2022-10-31T21:48:36.108Z,13.89
2022-10-31T21:53:36.057Z,14.06
2022-10-31T21:58:38.526Z,13.55
2022-10-31T22:03:36.168Z,13.65
2022-10-31T22:08:35.825Z,13.88
2022-10-31T22:13:38.763Z,13.73
2022-10-31T22:18:35.903Z,13.25
2022-10-31T22:23:35.691Z,13.52
2022-10-31T22:28:43.642Z,13.67
2022-10-31T22:33:35.522Z,13.04
2022-10-31T22:38:35.463Z,12.81
2022-10-31T22:43:35.332Z,12.87
2022-10-31T22:48:35.301Z,12.89
2022-10-31T22:53:35.229Z,12.99
2022-10-31T22:58:35.357Z,12.54
2022-10-31T23:03:35.196Z,12.13
2022-10-31T23:08:35.082Z,12.05
2022-10-31T23:13:38.077Z,11.96
2022-10-31T23:18:49.785Z,11.70
2022-10-31T23:24:46.136Z,12.79
2022-10-31T23:29:45.866Z,11.97
2022-10-31T23:34:45.937Z,12.15
2022-10-31T23:39:45.732Z,12.21
2022-10-31T23:44:45.855Z,12.21
2022-10-31T23:49:45.601Z,12.16
2022-10-31T23:54:45.640Z,11.99
2022-10-31T23:59:45.496Z,12.56
